Dagning — JXLU — position and weather

sailwx.info

Track history (hours):
 
Tides and Currents Weather Stations Pressure Air Temp Water Temp Dewpoint Dewpoint Depression Visibility Wind Speed Wind Dir Waves Ship Positions

Dagning

Last reported at 2017-Sep-14 05:30 UTC. Time now 2017-Sep-21 05:16 UTC.
Position N 61°35' E 005°25'.

Length 18 m; draft 2 m.

Type: Passenger vessel. MMSI: 257216700.

Date/timePositionNaut miles runAvg speedWind from/ knotsBaromVisibWave heightAir tempDewpointWater temp
2017-Sep-14 05:30N 61°35' E 005°25'610.8
2017-Sep-14 04:56N 61°36' E 005°13'512.2
2017-Sep-14 04:30N 61°36' E 005°02'0 0.0
2017-Sep-14 04:00N 61°36' E 005°02'0 0.0
2017-Sep-14 03:30N 61°36' E 005°02'0 0.0
2017-Sep-14 03:00N 61°36' E 005°02'0 0.0
2017-Sep-14 02:30N 61°36' E 005°02'0 0.0
2017-Sep-14 02:00N 61°36' E 005°02'0 0.0
2017-Sep-14 01:30N 61°36' E 005°02'0 0.0
2017-Sep-14 00:59N 61°36' E 005°02'0 0.0
2017-Sep-14 00:29N 61°36' E 005°02'0 0.0
2017-Sep-14 00:00N 61°36' E 005°02'0 0.0
2017-Sep-13 23:30N 61°36' E 005°02'0 0.0
2017-Sep-13 23:00N 61°36' E 005°02'0 0.0
2017-Sep-13 22:30N 61°36' E 005°02'0 0.0
2017-Sep-13 22:00N 61°36' E 005°02'0 0.0
2017-Sep-13 21:30N 61°36' E 005°02'0 0.0
2017-Sep-13 21:00N 61°36' E 005°02'714.6
2017-Sep-13 20:30N 61°43' E 004°56'3 6.8
2017-Sep-13 20:00N 61°46' E 004°53'0 0.0
2017-Sep-13 19:30N 61°46' E 004°53'0 0.0
2017-Sep-13 19:00N 61°46' E 004°53'0 0.0
2017-Sep-13 18:30N 61°46' E 004°53'0 0.0
2017-Sep-13 18:01N 61°46' E 004°53'0 0.0
2017-Sep-13 17:30N 61°46' E 004°53'3 5.2
2017-Sep-13 17:00N 61°44' E 004°55'816.3
2017-Sep-13 16:30N 61°36' E 005°02'0 0.0
2017-Sep-13 16:00N 61°36' E 005°02'0 0.0
2017-Sep-13 15:29N 61°36' E 005°02'1 2.0
2017-Sep-13 15:00N 61°36' E 004°60'510.0
2017-Sep-13 14:30N 61°37' E 004°49'612.6
2017-Sep-13 14:00N 61°36' E 005°02'0 0.1
2017-Sep-13 13:30N 61°36' E 005°02'0 0.0
2017-Sep-13 13:00N 61°36' E 005°02'0 0.0
2017-Sep-13 12:30N 61°36' E 005°02'0 0.0
2017-Sep-13 12:00N 61°36' E 005°02'0 0.0
2017-Sep-13 11:30N 61°36' E 005°02'0 0.0
2017-Sep-13 11:00N 61°36' E 005°02'0 0.0
2017-Sep-13 10:30N 61°36' E 005°02'0 0.0
2017-Sep-13 10:00N 61°36' E 005°02'0 0.0
2017-Sep-13 09:30N 61°36' E 005°02'0 0.0
2017-Sep-13 09:00N 61°36' E 005°02'0 0.0
2017-Sep-13 08:30N 61°36' E 005°02'0 0.0
2017-Sep-13 08:00N 61°36' E 005°02'0 0.0
2017-Sep-13 07:31N 61°36' E 005°02'0 0.0
2017-Sep-13 07:00N 61°36' E 005°02'0 0.0
2017-Sep-13 06:30N 61°36' E 005°02'0 0.0
2017-Sep-13 06:00N 61°36' E 005°02'0 0.0
2017-Sep-13 05:30N 61°36' E 005°02'0 0.0
2017-Sep-13 05:00N 61°36' E 005°02'0 0.0
2017-Sep-13 04:30N 61°36' E 005°02'0 0.0
2017-Sep-13 04:00N 61°36' E 005°02'0 0.0
2017-Sep-13 03:31N 61°36' E 005°02'0 0.0
2017-Sep-13 03:00N 61°36' E 005°02'0 0.0
2017-Sep-13 02:31N 61°36' E 005°02'0 0.0
2017-Sep-13 02:00N 61°36' E 005°02'0 0.0
2017-Sep-13 01:30N 61°36' E 005°02'0 0.0
2017-Sep-13 01:00N 61°36' E 005°02'0 0.0
2017-Sep-13 00:30N 61°36' E 005°02'0 0.0
2017-Sep-13 00:00N 61°36' E 005°02'0 0.0
2017-Sep-12 23:30N 61°36' E 005°02'0 0.0
2017-Sep-12 23:00N 61°36' E 005°02'0 0.0
2017-Sep-12 22:30N 61°36' E 005°02'0 0.0
2017-Sep-12 22:00N 61°36' E 005°02'0 0.0
2017-Sep-12 21:30N 61°36' E 005°02'0 0.0
2017-Sep-12 21:00N 61°36' E 005°02'0 0.0
2017-Sep-12 20:30N 61°36' E 005°02'0 0.0
2017-Sep-12 20:00N 61°36' E 005°02'0 0.0
2017-Sep-12 19:30N 61°36' E 005°02'0 0.0
2017-Sep-12 19:01N 61°36' E 005°02'0 0.0
2017-Sep-12 18:30N 61°36' E 005°02'0 0.0
2017-Sep-12 18:00N 61°36' E 005°02'0 0.0
2017-Sep-12 17:30N 61°36' E 005°02'0 0.0
2017-Sep-12 16:59N 61°36' E 005°02'0 0.0
2017-Sep-12 16:30N 61°36' E 005°02'0 0.0
2017-Sep-12 16:00N 61°36' E 005°02'0 0.0
2017-Sep-12 15:30N 61°36' E 005°02'4 8.9
2017-Sep-12 15:00N 61°38' E 004°54'3 6.8
2017-Sep-12 14:30N 61°37' E 005°00'1 2.0
2017-Sep-12 14:00N 61°36' E 005°02'0 0.0
2017-Sep-12 13:30N 61°36' E 005°02'0 0.0
2017-Sep-12 13:00N 61°36' E 005°02'0 0.0
2017-Sep-12 12:30N 61°36' E 005°02'0 0.0
2017-Sep-12 12:00N 61°36' E 005°02'0 0.0
2017-Sep-12 11:30N 61°36' E 005°02'0 0.0
2017-Sep-12 11:00N 61°36' E 005°02'0 0.0
2017-Sep-12 10:29N 61°36' E 005°02'0 0.0
2017-Sep-12 10:00N 61°36' E 005°02'0 0.0
2017-Sep-12 09:30N 61°36' E 005°02'0 0.0
2017-Sep-12 09:00N 61°36' E 005°02'0 0.0
2017-Sep-12 08:30N 61°36' E 005°02'0 0.0
2017-Sep-12 07:59N 61°36' E 005°02'0 0.0
2017-Sep-12 07:30N 61°36' E 005°02'0 0.0
2017-Sep-12 07:00N 61°36' E 005°02'0 0.0
2017-Sep-12 06:30N 61°36' E 005°02'0 0.0
2017-Sep-12 06:00N 61°36' E 005°02'0 0.0
2017-Sep-12 05:31N 61°36' E 005°02'0 0.0
2017-Sep-12 05:00N 61°36' E 005°02'0 0.0
2017-Sep-12 04:30N 61°36' E 005°02'0 0.0
2017-Sep-12 04:00N 61°36' E 005°02'0 0.0
2017-Sep-12 03:31N 61°36' E 005°02'0 0.0
2017-Sep-12 03:00N 61°36' E 005°02'0 0.0
2017-Sep-12 02:30N 61°36' E 005°02'0 0.0
2017-Sep-12 02:00N 61°36' E 005°02'0 0.0
2017-Sep-12 01:29N 61°36' E 005°02'0 0.0
2017-Sep-12 01:00N 61°36' E 005°02'0 0.0
2017-Sep-12 00:31N 61°36' E 005°02'0 0.0
2017-Sep-12 00:00N 61°36' E 005°02'0 0.0
2017-Sep-11 23:29N 61°36' E 005°02'0 0.0
2017-Sep-11 23:00N 61°36' E 005°02'0 0.0
2017-Sep-11 22:30N 61°36' E 005°02'0 0.0
2017-Sep-11 22:00N 61°36' E 005°02'0 0.0
2017-Sep-11 21:30N 61°36' E 005°02'0 0.0
2017-Sep-11 21:00N 61°36' E 005°02'0 0.0
2017-Sep-11 20:31N 61°36' E 005°02'0 0.0
2017-Sep-11 20:00N 61°36' E 005°02'0 0.0
2017-Sep-11 19:30N 61°36' E 005°02'0 0.0
2017-Sep-11 19:00N 61°36' E 005°02'0 0.0
2017-Sep-11 18:30N 61°36' E 005°02'0 0.0
2017-Sep-11 18:00N 61°36' E 005°02'0 0.0
2017-Sep-11 17:30N 61°36' E 005°02'0 0.0
2017-Sep-11 16:59N 61°36' E 005°02'0 0.0
2017-Sep-11 16:30N 61°36' E 005°02'0 0.0
2017-Sep-11 16:01N 61°36' E 005°02'0 0.0
2017-Sep-11 15:30N 61°36' E 005°02'2 4.5
2017-Sep-11 15:00N 61°37' E 004°57'4 7.9
2017-Sep-11 14:30N 61°37' E 004°49'612.2
2017-Sep-11 14:00N 61°36' E 005°02'0 0.0
2017-Sep-11 13:30N 61°36' E 005°02'0 0.0
2017-Sep-11 13:00N 61°36' E 005°02'0 0.0
2017-Sep-11 12:30N 61°36' E 005°02'0 0.0
2017-Sep-11 12:00N 61°36' E 005°02'0 0.0
2017-Sep-11 11:29N 61°36' E 005°02'0 0.0
2017-Sep-11 11:00N 61°36' E 005°02'0 0.0
2017-Sep-11 10:30N 61°36' E 005°02'0 0.0
2017-Sep-11 10:00N 61°36' E 005°02'0 0.0
2017-Sep-11 09:30N 61°36' E 005°02'0 0.0
2017-Sep-11 08:59N 61°36' E 005°02'0 0.0
2017-Sep-11 08:30N 61°36' E 005°02'0 0.0
2017-Sep-11 08:00N 61°36' E 005°02'0 0.0
2017-Sep-11 07:30N 61°36' E 005°02'0 0.0
2017-Sep-11 06:59N 61°36' E 005°02'0 0.0
2017-Sep-11 06:30N 61°36' E 005°02'0 0.0
2017-Sep-11 06:00N 61°36' E 005°02'0 0.0
2017-Sep-11 05:30N 61°36' E 005°02'0 0.0
2017-Sep-11 05:00N 61°36' E 005°02'0 0.0
2017-Sep-11 04:30N 61°36' E 005°02'0 0.0
2017-Sep-11 04:00N 61°36' E 005°02'0 0.0
2017-Sep-11 03:30N 61°36' E 005°02'0 0.0
2017-Sep-11 02:59N 61°36' E 005°02'0 0.0
2017-Sep-11 02:30N 61°36' E 005°02'0 0.0
2017-Sep-11 02:00N 61°36' E 005°02'0 0.0
2017-Sep-11 01:29N 61°36' E 005°02'0 0.0
2017-Sep-11 01:00N 61°36' E 005°02'0 0.0
2017-Sep-11 00:30N 61°36' E 005°02'0 0.0
2017-Sep-10 23:59N 61°36' E 005°02'0 0.0
2017-Sep-10 23:30N 61°36' E 005°02'0 0.0
2017-Sep-10 23:00N 61°36' E 005°02'0 0.0
2017-Sep-10 22:29N 61°36' E 005°02'0 0.0
2017-Sep-10 22:00N 61°36' E 005°02'0 0.0
2017-Sep-10 21:30N 61°36' E 005°02'0 0.0
2017-Sep-10 21:00N 61°36' E 005°02'0 0.0
2017-Sep-10 20:30N 61°36' E 005°02'0 0.0
2017-Sep-10 20:00N 61°36' E 005°02'0 0.0
2017-Sep-10 19:30N 61°36' E 005°02'0 0.0
2017-Sep-10 19:00N 61°36' E 005°02'0 0.0
2017-Sep-10 18:30N 61°36' E 005°02'0 0.0
2017-Sep-10 18:00N 61°36' E 005°02'0 0.0
2017-Sep-10 17:30N 61°36' E 005°02'0 0.0
2017-Sep-10 17:00N 61°36' E 005°02'0 0.0
2017-Sep-10 16:29N 61°36' E 005°02'0 0.0
2017-Sep-10 15:59N 61°36' E 005°02'0 0.0
2017-Sep-10 15:30N 61°36' E 005°02'0 0.0
2017-Sep-10 14:59N 61°36' E 005°02'0 0.0
2017-Sep-10 14:00N 61°36' E 005°02'0 0.0
2017-Sep-10 13:30N 61°36' E 005°02'0 0.0
2017-Sep-10 13:00N 61°36' E 005°02'0 0.0
2017-Sep-10 12:29N 61°36' E 005°02'0 0.0
2017-Sep-10 12:00N 61°36' E 005°02'0 0.0
2017-Sep-10 11:30N 61°36' E 005°02'0 0.0
2017-Sep-10 11:00N 61°36' E 005°02'0 0.0
2017-Sep-10 10:29N 61°36' E 005°02'0 0.0
2017-Sep-10 10:00N 61°36' E 005°02'0 0.0
2017-Sep-10 09:30N 61°36' E 005°02'0 0.0
2017-Sep-10 09:00N 61°36' E 005°02'0 0.0
2017-Sep-10 08:30N 61°36' E 005°02'0 0.0
2017-Sep-10 08:00N 61°36' E 005°02'0 0.0
2017-Sep-10 07:30N 61°36' E 005°02'0 0.0
2017-Sep-10 07:00N 61°36' E 005°02'0 0.0
2017-Sep-10 06:30N 61°36' E 005°02'0 0.0
2017-Sep-10 06:00N 61°36' E 005°02'0 0.0
2017-Sep-10 05:30N 61°36' E 005°02'0 0.0
2017-Sep-10 04:59N 61°36' E 005°02'0 0.0
2017-Sep-10 04:30N 61°36' E 005°02'0 0.0
2017-Sep-10 04:00N 61°36' E 005°02'0 0.0
2017-Sep-10 03:30N 61°36' E 005°02'0 0.0
2017-Sep-10 03:00N 61°36' E 005°02'0 0.0
2017-Sep-10 02:30N 61°36' E 005°02'0 0.0
2017-Sep-10 02:00N 61°36' E 005°02'0 0.0
2017-Sep-10 01:29N 61°36' E 005°02'0 0.0
2017-Sep-10 01:00N 61°36' E 005°02'0 0.0
2017-Sep-10 00:30N 61°36' E 005°02'0 0.0
2017-Sep-09 23:59N 61°36' E 005°02'0 0.0
2017-Sep-09 23:30N 61°36' E 005°02'0 0.0
2017-Sep-09 23:00N 61°36' E 005°02'0 0.0
2017-Sep-09 22:30N 61°36' E 005°02'0 0.0
2017-Sep-09 22:00N 61°36' E 005°02'0 0.0
2017-Sep-09 21:30N 61°36' E 005°02'0 0.0
2017-Sep-09 21:00N 61°36' E 005°02'0 0.0
2017-Sep-09 20:30N 61°36' E 005°02'0 0.0
2017-Sep-09 20:00N 61°36' E 005°02'0 0.0
2017-Sep-09 19:30N 61°36' E 005°02'0 0.0
2017-Sep-09 19:00N 61°36' E 005°02'0 0.0
2017-Sep-09 18:30N 61°36' E 005°02'0 0.0
2017-Sep-09 18:00N 61°36' E 005°02'0 0.0
2017-Sep-09 17:30N 61°36' E 005°02'0 0.0
2017-Sep-09 17:00N 61°36' E 005°02'0 0.0
2017-Sep-09 16:30N 61°36' E 005°02'0 0.0
2017-Sep-09 16:00N 61°36' E 005°02'0 0.0
2017-Sep-09 15:30N 61°36' E 005°02'0 0.0
2017-Sep-09 15:00N 61°36' E 005°02'918.4
2017-Sep-09 14:30N 61°42' E 004°46'510.7
2017-Sep-09 14:00N 61°41' E 004°58'4 7.8
2017-Sep-09 13:30N 61°43' E 004°52'2 4.7
2017-Sep-09 13:00N 61°42' E 004°55'612.6
2017-Sep-09 12:30N 61°36' E 005°02'0 0.0
2017-Sep-09 12:00N 61°36' E 005°02'0 0.0
2017-Sep-09 11:30N 61°36' E 005°02'0 0.0
2017-Sep-09 11:00N 61°36' E 005°02'0 0.0
2017-Sep-09 10:30N 61°36' E 005°02'0 0.0
2017-Sep-09 10:00N 61°36' E 005°02'0 0.0
2017-Sep-09 09:30N 61°36' E 005°02'0 0.0
2017-Sep-09 09:00N 61°36' E 005°02'0 0.0
2017-Sep-09 08:29N 61°36' E 005°02'0 0.0
2017-Sep-09 08:00N 61°36' E 005°02'0 0.0
2017-Sep-09 07:30N 61°36' E 005°02'0 0.0
2017-Sep-09 07:00N 61°36' E 005°02'0 0.0
2017-Sep-09 06:30N 61°36' E 005°02'0 0.0
2017-Sep-09 06:00N 61°36' E 005°02'0 0.0
2017-Sep-09 05:30N 61°36' E 005°02'0 0.0
2017-Sep-09 05:00N 61°36' E 005°02'0 0.0
2017-Sep-09 04:30N 61°36' E 005°02'0 0.0
2017-Sep-09 04:00N 61°36' E 005°02'0 0.0
2017-Sep-09 03:30N 61°36' E 005°02'0 0.0
2017-Sep-09 02:59N 61°36' E 005°02'0 0.0
2017-Sep-09 02:30N 61°36' E 005°02'0 0.0
2017-Sep-09 02:00N 61°36' E 005°02'0 0.0
2017-Sep-09 01:30N 61°36' E 005°02'0 0.0
2017-Sep-09 00:59N 61°36' E 005°02'0 0.0
2017-Sep-09 00:30N 61°36' E 005°02'0 0.0
2017-Sep-08 23:58N 61°36' E 005°02'0 0.0
2017-Sep-08 23:28N 61°36' E 005°02'0 0.0
2017-Sep-08 22:48N 61°36' E 005°02'0 0.0
2017-Sep-08 22:30N 61°36' E 005°02'0 0.0
2017-Sep-08 22:00N 61°36' E 005°02'0 0.0
2017-Sep-08 21:30N 61°36' E 005°02'0 0.0
2017-Sep-08 21:00N 61°36' E 005°02'0 0.0
2017-Sep-08 20:29N 61°36' E 005°02'0 0.0
2017-Sep-08 20:00N 61°36' E 005°02'0 0.0
2017-Sep-08 19:30N 61°36' E 005°02'0 0.0
2017-Sep-08 19:00N 61°36' E 005°02'0 0.0
2017-Sep-08 18:30N 61°36' E 005°02'0 0.0
2017-Sep-08 18:00N 61°36' E 005°02'0 0.0
2017-Sep-08 17:30N 61°36' E 005°02'0 0.0
2017-Sep-08 17:00N 61°36' E 005°02'0 0.0
2017-Sep-08 16:30N 61°36' E 005°02'0 0.0
2017-Sep-08 16:00N 61°36' E 005°02'0 0.0
2017-Sep-08 15:30N 61°36' E 005°02'0 0.0
2017-Sep-08 15:00N 61°36' E 005°02'0 0.0
2017-Sep-08 14:30N 61°36' E 005°02'0 0.0
2017-Sep-08 13:59N 61°36' E 005°02'0 0.0
2017-Sep-08 13:30N 61°36' E 005°02'0 0.0
2017-Sep-08 13:00N 61°36' E 005°02'0 0.0
2017-Sep-08 12:30N 61°36' E 005°02'0 0.0
2017-Sep-08 12:00N 61°36' E 005°02'0 0.0
2017-Sep-08 11:30N 61°36' E 005°02'0 0.0
2017-Sep-08 11:00N 61°36' E 005°02'3 5.5
2017-Sep-08 10:30N 61°39' E 004°59'815.8
2017-Sep-08 09:59N 61°46' E 004°53'714.0
2017-Sep-08 09:30N 61°40' E 004°58'4 7.7
2017-Sep-08 09:00N 61°36' E 005°02'0 0.0
2017-Sep-08 08:30N 61°36' E 005°02'0 0.0
2017-Sep-08 07:59N 61°36' E 005°02'0 0.0
2017-Sep-08 07:30N 61°36' E 005°02'0 0.0
2017-Sep-08 07:01N 61°36' E 005°02'0 0.0
2017-Sep-08 06:29N 61°36' E 005°02'0 0.0
2017-Sep-08 06:00N 61°36' E 005°02'0 0.0
2017-Sep-08 05:30N 61°36' E 005°02'0 0.0
2017-Sep-08 05:00N 61°36' E 005°02'0 0.0
2017-Sep-08 04:30N 61°36' E 005°02'0 0.0
2017-Sep-08 04:00N 61°36' E 005°02'0 0.0
2017-Sep-08 03:30N 61°36' E 005°02'0 0.0
2017-Sep-08 03:00N 61°36' E 005°02'0 0.0
2017-Sep-08 02:30N 61°36' E 005°02'0 0.0
2017-Sep-08 01:59N 61°36' E 005°02'0 0.0
2017-Sep-08 01:29N 61°36' E 005°02'0 0.0
2017-Sep-08 01:00N 61°36' E 005°02'0 0.0
2017-Sep-08 00:30N 61°36' E 005°02'0 0.0
2017-Sep-08 00:00N 61°36' E 005°02'0 0.0
2017-Sep-07 23:30N 61°36' E 005°02'0 0.0
2017-Sep-07 23:00N 61°36' E 005°02'0 0.0
2017-Sep-07 22:30N 61°36' E 005°02'0 0.0
2017-Sep-07 22:01N 61°36' E 005°02'0 0.0
2017-Sep-07 21:30N 61°36' E 005°02'0 0.0
2017-Sep-07 21:00N 61°36' E 005°02'0 0.0
2017-Sep-07 20:30N 61°36' E 005°02'0 0.0
2017-Sep-07 20:00N 61°36' E 005°02'0 0.0
2017-Sep-07 19:30N 61°36' E 005°02'0 0.0
2017-Sep-07 19:00N 61°36' E 005°02'0 0.0
2017-Sep-07 18:30N 61°36' E 005°02'0 0.0
2017-Sep-07 18:00N 61°36' E 005°02'0 0.0
2017-Sep-07 17:29N 61°36' E 005°02'0 0.0
2017-Sep-07 16:59N 61°36' E 005°02'0 0.0
2017-Sep-07 16:30N 61°36' E 005°02'0 0.0
2017-Sep-07 16:00N 61°36' E 005°02'7 4.5
2017-Sep-07 14:29N 61°30' E 005°08'5 9.5
2017-Sep-07 14:00N 61°30' E 004°58'0 0.0
2017-Sep-07 13:29N 61°30' E 004°58'713.3
2017-Sep-07 13:00N 61°34' E 004°47'0 0.3
2017-Sep-07 12:30N 61°34' E 004°47'0 0.0
2017-Sep-07 12:00N 61°34' E 004°47'1 2.7
2017-Sep-07 11:30N 61°35' E 004°49'0 0.0
2017-Sep-07 11:01N 61°35' E 004°49'2 4.1
2017-Sep-07 10:30N 61°37' E 004°49'0 0.3
2017-Sep-07 10:00N 61°37' E 004°49'0 0.0
2017-Sep-07 09:30N 61°37' E 004°49'3 6.9
2017-Sep-07 09:00N 61°40' E 004°53'0 0.0
2017-Sep-07 08:30N 61°40' E 004°53'4 7.7
2017-Sep-07 08:00N 61°38' E 005°00'0 0.0
2017-Sep-07 07:30N 61°38' E 005°00'0 0.0
2017-Sep-07 07:00N 61°38' E 005°00'2 4.2
2017-Sep-07 06:29N 61°36' E 005°02'918.3
2017-Sep-07 06:00N 61°45' E 004°60'816.0
2017-Sep-07 05:30N 61°46' E 005°16'1121.8
2017-Sep-07 05:00N 61°46' E 004°53'510.5
2017-Sep-07 04:30N 61°41' E 004°47'917.9
2017-Sep-07 04:00N 61°36' E 005°02'0 0.2
2017-Sep-07 03:30N 61°36' E 005°02'0 0.0
2017-Sep-07 03:00N 61°36' E 005°02'0 0.0
2017-Sep-07 02:30N 61°36' E 005°02'0 0.0
2017-Sep-07 02:01N 61°36' E 005°02'0 0.0
2017-Sep-07 01:30N 61°36' E 005°02'0 0.0
2017-Sep-07 01:00N 61°36' E 005°02'0 0.0
2017-Sep-07 00:29N 61°36' E 005°02'0 0.0
2017-Sep-07 00:00N 61°36' E 005°02'0 0.0
2017-Sep-06 23:30N 61°36' E 005°02'0 0.0
2017-Sep-06 23:00N 61°36' E 005°02'0 0.0
2017-Sep-06 22:30N 61°36' E 005°02'0 0.0
2017-Sep-06 21:59N 61°36' E 005°02'0 0.0
2017-Sep-06 21:29N 61°36' E 005°02'0 0.0
2017-Sep-06 21:00N 61°36' E 005°02'0 0.0
2017-Sep-06 20:30N 61°36' E 005°02'0 0.0
2017-Sep-06 20:00N 61°36' E 005°02'0 0.0
2017-Sep-06 19:30N 61°36' E 005°02'0 0.0
2017-Sep-06 19:00N 61°36' E 005°02'0 0.0
2017-Sep-06 18:31N 61°36' E 005°02'0 0.0
2017-Sep-06 18:00N 61°36' E 005°02'0 0.0
2017-Sep-06 17:30N 61°36' E 005°02'0 0.0
2017-Sep-06 17:00N 61°36' E 005°02'0 0.0
2017-Sep-06 16:30N 61°36' E 005°02'0 0.0
2017-Sep-06 16:00N 61°36' E 005°02'0 0.0
2017-Sep-06 15:30N 61°36' E 005°02'2 4.0
2017-Sep-06 15:00N 61°37' E 004°58'4 8.1
2017-Sep-06 14:30N 61°37' E 004°49'611.7
2017-Sep-06 14:00N 61°36' E 005°02'0 0.0
2017-Sep-06 13:30N 61°36' E 005°02'0 0.0
2017-Sep-06 13:00N 61°36' E 005°02'0 0.0
2017-Sep-06 12:29N 61°36' E 005°02'0 0.0
2017-Sep-06 12:00N 61°36' E 005°02'0 0.0
2017-Sep-06 11:30N 61°36' E 005°02'0 0.0
2017-Sep-06 11:00N 61°36' E 005°02'0 0.0
2017-Sep-06 10:30N 61°36' E 005°02'0 0.0
2017-Sep-06 09:59N 61°36' E 005°02'0 0.0
2017-Sep-06 09:29N 61°36' E 005°02'0 0.0
2017-Sep-06 09:00N 61°36' E 005°02'917.8
2017-Sep-06 08:30N 61°44' E 004°55'612.1
2017-Sep-06 08:00N 61°39' E 004°59'3 5.8
2017-Sep-06 07:30N 61°36' E 005°02'0 0.0
2017-Sep-06 07:00N 61°36' E 005°02'0 0.0
2017-Sep-06 06:30N 61°36' E 005°02'0 0.0
2017-Sep-06 06:00N 61°36' E 005°02'0 0.0
2017-Sep-06 05:30N 61°36' E 005°02'0 0.0
2017-Sep-06 04:59N 61°36' E 005°02'0 0.0
2017-Sep-06 04:30N 61°36' E 005°02'611.7
2017-Sep-06 04:00N 61°39' E 004°51'612.0
2017-Sep-06 03:30N 61°36' E 005°02'0 0.1
2017-Sep-06 03:00N 61°36' E 005°02'0 0.0
2017-Sep-06 02:30N 61°36' E 005°02'0 0.0
2017-Sep-06 01:59N 61°36' E 005°02'0 0.0
2017-Sep-06 01:30N 61°36' E 005°02'0 0.0
2017-Sep-06 01:00N 61°36' E 005°02'0 0.0
2017-Sep-06 00:30N 61°36' E 005°02'0 0.0
2017-Sep-06 00:00N 61°36' E 005°02'0 0.0
2017-Sep-05 23:30N 61°36' E 005°02'0 0.0
2017-Sep-05 23:00N 61°36' E 005°02'0 0.0
2017-Sep-05 22:29N 61°36' E 005°02'0 0.0
2017-Sep-05 21:59N 61°36' E 005°02'0 0.0
2017-Sep-05 21:30N 61°36' E 005°02'0 0.0
2017-Sep-05 20:59N 61°36' E 005°02'0 0.0
2017-Sep-05 20:30N 61°36' E 005°02'0 0.0
2017-Sep-05 20:00N 61°36' E 005°02'0 0.0
2017-Sep-05 19:30N 61°36' E 005°02'0 0.0
2017-Sep-05 18:59N 61°36' E 005°02'0 0.0
2017-Sep-05 18:30N 61°36' E 005°02'0 0.0
2017-Sep-05 18:00N 61°36' E 005°02'0 0.0
2017-Sep-05 17:30N 61°36' E 005°02'0 0.0
2017-Sep-05 17:00N 61°36' E 005°02'0 0.0
2017-Sep-05 16:30N 61°36' E 005°02'0 0.0
2017-Sep-05 16:00N 61°36' E 005°02'0 0.0
2017-Sep-05 15:30N 61°36' E 005°02'0 0.0
2017-Sep-05 15:00N 61°36' E 005°02'0 0.0
2017-Sep-05 14:30N 61°36' E 005°02'0 0.0
2017-Sep-05 14:00N 61°36' E 005°02'0 0.0
2017-Sep-05 13:30N 61°36' E 005°02'0 0.0
2017-Sep-05 13:00N 61°36' E 005°02'0 0.0
2017-Sep-05 12:29N 61°36' E 005°02'0 0.0
2017-Sep-05 12:00N 61°36' E 005°02'0 0.0
2017-Sep-05 11:30N 61°36' E 005°02'0 0.0
2017-Sep-05 11:00N 61°36' E 005°02'0 0.0
2017-Sep-05 10:30N 61°36' E 005°02'0 0.0
2017-Sep-05 09:59N 61°36' E 005°02'0 0.0
2017-Sep-05 09:30N 61°36' E 005°02'0 0.0
2017-Sep-05 09:00N 61°36' E 005°02'0 0.0
2017-Sep-05 08:29N 61°36' E 005°02'0 0.0
2017-Sep-05 08:00N 61°36' E 005°02'0 0.0
2017-Sep-05 07:29N 61°36' E 005°02'0 0.0
2017-Sep-05 06:59N 61°36' E 005°02'714.7
2017-Sep-05 06:30N 61°42' E 004°54'1 1.2
2017-Sep-05 06:00N 61°43' E 004°55'714.6
2017-Sep-05 05:30N 61°36' E 005°02'0 0.0
2017-Sep-05 05:00N 61°36' E 005°02'0 0.0
2017-Sep-05 04:30N 61°36' E 005°02'0 0.0
2017-Sep-05 04:00N 61°36' E 005°02'0 0.0
2017-Sep-05 03:30N 61°36' E 005°02'0 0.0
2017-Sep-05 02:59N 61°36' E 005°02'0 0.0
2017-Sep-05 02:30N 61°36' E 005°02'0 0.0
2017-Sep-05 02:00N 61°36' E 005°02'0 0.0
2017-Sep-05 01:29N 61°36' E 005°02'0 0.0
2017-Sep-05 01:00N 61°36' E 005°02'0 0.0
2017-Sep-05 00:30N 61°36' E 005°02'0 0.0
2017-Sep-05 00:00N 61°36' E 005°02'0 0.0
2017-Sep-04 23:30N 61°36' E 005°02'0 0.0
2017-Sep-04 23:00N 61°36' E 005°02'0 0.0
2017-Sep-04 22:30N 61°36' E 005°02'0 0.0
2017-Sep-04 22:00N 61°36' E 005°02'0 0.0
2017-Sep-04 21:30N 61°36' E 005°02'0 0.0
2017-Sep-04 21:00N 61°36' E 005°02'0 0.0
2017-Sep-04 20:30N 61°36' E 005°02'0 0.0
2017-Sep-04 19:59N 61°36' E 005°02'0 0.0
2017-Sep-04 19:30N 61°36' E 005°02'0 0.0
2017-Sep-04 19:00N 61°36' E 005°02'0 0.0
2017-Sep-04 18:30N 61°36' E 005°02'0 0.0
2017-Sep-04 18:00N 61°36' E 005°02'0 0.0
2017-Sep-04 17:30N 61°36' E 005°02'0 0.0
2017-Sep-04 17:00N 61°36' E 005°02'0 0.0
2017-Sep-04 16:30N 61°36' E 005°02'0 0.0
2017-Sep-04 16:00N 61°36' E 005°02'0 0.0
2017-Sep-04 15:30N 61°36' E 005°02'0 0.0
2017-Sep-04 15:00N 61°36' E 005°02'0 0.0
2017-Sep-04 14:30N 61°36' E 005°02'0 0.0
2017-Sep-04 14:00N 61°36' E 005°02'0 0.0
2017-Sep-04 13:30N 61°36' E 005°02'0 0.0
2017-Sep-04 12:59N 61°36' E 005°02'0 0.0
2017-Sep-04 12:30N 61°36' E 005°02'815.0
2017-Sep-04 12:00N 61°43' E 004°56'4 8.3
2017-Sep-04 11:30N 61°39' E 004°59'3 6.5
2017-Sep-04 10:58N 61°36' E 005°02'0 0.0
2017-Sep-04 10:30N 61°36' E 005°02'0 0.0
2017-Sep-04 09:59N 61°36' E 005°02'0 0.0
2017-Sep-04 09:30N 61°36' E 005°02'0 0.0
2017-Sep-04 09:00N 61°36' E 005°02'0 0.0
2017-Sep-04 08:30N 61°36' E 005°02'0 0.0
2017-Sep-04 07:59N 61°36' E 005°02'0 0.0
2017-Sep-04 07:30N 61°36' E 005°02'0 0.0
2017-Sep-04 07:00N 61°36' E 005°02'0 0.0
2017-Sep-04 06:28N 61°36' E 005°02'0 0.0
2017-Sep-04 05:59N 61°36' E 005°02'0 0.0
2017-Sep-04 05:30N 61°36' E 005°02'  
Track history (hours):
 
Tides and Currents Weather Stations Pressure Air Temp Water Temp Dewpoint Dewpoint Depression Visibility Wind Speed Wind Dir Waves Ship Positions

Dagning

Last reported at 2017-Sep-14 05:30 UTC. Time now 2017-Sep-21 05:16 UTC.
Position N 61°35' E 005°25'.

Length 18 m; draft 2 m.

Type: Passenger vessel. MMSI: 257216700.

Date/timePositionNaut miles runAvg speedWind from/ knotsBaromVisibWave heightAir tempDewpointWater temp
2017-Sep-14 05:30N 61°35' E 005°25'610.8
2017-Sep-14 04:56N 61°36' E 005°13'512.2
2017-Sep-14 04:30N 61°36' E 005°02'0 0.0
2017-Sep-14 04:00N 61°36' E 005°02'0 0.0
2017-Sep-14 03:30N 61°36' E 005°02'0 0.0
2017-Sep-14 03:00N 61°36' E 005°02'0 0.0
2017-Sep-14 02:30N 61°36' E 005°02'0 0.0
2017-Sep-14 02:00N 61°36' E 005°02'0 0.0
2017-Sep-14 01:30N 61°36' E 005°02'0 0.0
2017-Sep-14 00:59N 61°36' E 005°02'0 0.0
2017-Sep-14 00:29N 61°36' E 005°02'0 0.0
2017-Sep-14 00:00N 61°36' E 005°02'0 0.0
2017-Sep-13 23:30N 61°36' E 005°02'0 0.0
2017-Sep-13 23:00N 61°36' E 005°02'0 0.0
2017-Sep-13 22:30N 61°36' E 005°02'0 0.0
2017-Sep-13 22:00N 61°36' E 005°02'0 0.0
2017-Sep-13 21:30N 61°36' E 005°02'0 0.0
2017-Sep-13 21:00N 61°36' E 005°02'714.6
2017-Sep-13 20:30N 61°43' E 004°56'3 6.8
2017-Sep-13 20:00N 61°46' E 004°53'0 0.0
2017-Sep-13 19:30N 61°46' E 004°53'0 0.0
2017-Sep-13 19:00N 61°46' E 004°53'0 0.0
2017-Sep-13 18:30N 61°46' E 004°53'0 0.0
2017-Sep-13 18:01N 61°46' E 004°53'0 0.0
2017-Sep-13 17:30N 61°46' E 004°53'3 5.2
2017-Sep-13 17:00N 61°44' E 004°55'816.3
2017-Sep-13 16:30N 61°36' E 005°02'0 0.0
2017-Sep-13 16:00N 61°36' E 005°02'0 0.0
2017-Sep-13 15:29N 61°36' E 005°02'1 2.0
2017-Sep-13 15:00N 61°36' E 004°60'510.0
2017-Sep-13 14:30N 61°37' E 004°49'612.6
2017-Sep-13 14:00N 61°36' E 005°02'0 0.1
2017-Sep-13 13:30N 61°36' E 005°02'0 0.0
2017-Sep-13 13:00N 61°36' E 005°02'0 0.0
2017-Sep-13 12:30N 61°36' E 005°02'0 0.0
2017-Sep-13 12:00N 61°36' E 005°02'0 0.0
2017-Sep-13 11:30N 61°36' E 005°02'0 0.0
2017-Sep-13 11:00N 61°36' E 005°02'0 0.0
2017-Sep-13 10:30N 61°36' E 005°02'0 0.0
2017-Sep-13 10:00N 61°36' E 005°02'0 0.0
2017-Sep-13 09:30N 61°36' E 005°02'0 0.0
2017-Sep-13 09:00N 61°36' E 005°02'0 0.0
2017-Sep-13 08:30N 61°36' E 005°02'0 0.0
2017-Sep-13 08:00N 61°36' E 005°02'0 0.0
2017-Sep-13 07:31N 61°36' E 005°02'0 0.0
2017-Sep-13 07:00N 61°36' E 005°02'0 0.0
2017-Sep-13 06:30N 61°36' E 005°02'0 0.0
2017-Sep-13 06:00N 61°36' E 005°02'0 0.0
2017-Sep-13 05:30N 61°36' E 005°02'0 0.0
2017-Sep-13 05:00N 61°36' E 005°02'0 0.0
2017-Sep-13 04:30N 61°36' E 005°02'0 0.0
2017-Sep-13 04:00N 61°36' E 005°02'0 0.0
2017-Sep-13 03:31N 61°36' E 005°02'0 0.0
2017-Sep-13 03:00N 61°36' E 005°02'0 0.0
2017-Sep-13 02:31N 61°36' E 005°02'0 0.0
2017-Sep-13 02:00N 61°36' E 005°02'0 0.0
2017-Sep-13 01:30N 61°36' E 005°02'0 0.0
2017-Sep-13 01:00N 61°36' E 005°02'0 0.0
2017-Sep-13 00:30N 61°36' E 005°02'0 0.0
2017-Sep-13 00:00N 61°36' E 005°02'0 0.0
2017-Sep-12 23:30N 61°36' E 005°02'0 0.0
2017-Sep-12 23:00N 61°36' E 005°02'0 0.0
2017-Sep-12 22:30N 61°36' E 005°02'0 0.0
2017-Sep-12 22:00N 61°36' E 005°02'0 0.0
2017-Sep-12 21:30N 61°36' E 005°02'0 0.0
2017-Sep-12 21:00N 61°36' E 005°02'0 0.0
2017-Sep-12 20:30N 61°36' E 005°02'0 0.0
2017-Sep-12 20:00N 61°36' E 005°02'0 0.0
2017-Sep-12 19:30N 61°36' E 005°02'0 0.0
2017-Sep-12 19:01N 61°36' E 005°02'0 0.0
2017-Sep-12 18:30N 61°36' E 005°02'0 0.0
2017-Sep-12 18:00N 61°36' E 005°02'0 0.0
2017-Sep-12 17:30N 61°36' E 005°02'0 0.0
2017-Sep-12 16:59N 61°36' E 005°02'0 0.0
2017-Sep-12 16:30N 61°36' E 005°02'0 0.0
2017-Sep-12 16:00N 61°36' E 005°02'0 0.0
2017-Sep-12 15:30N 61°36' E 005°02'4 8.9
2017-Sep-12 15:00N 61°38' E 004°54'3 6.8
2017-Sep-12 14:30N 61°37' E 005°00'1 2.0
2017-Sep-12 14:00N 61°36' E 005°02'0 0.0
2017-Sep-12 13:30N 61°36' E 005°02'0 0.0
2017-Sep-12 13:00N 61°36' E 005°02'0 0.0
2017-Sep-12 12:30N 61°36' E 005°02'0 0.0
2017-Sep-12 12:00N 61°36' E 005°02'0 0.0
2017-Sep-12 11:30N 61°36' E 005°02'0 0.0
2017-Sep-12 11:00N 61°36' E 005°02'0 0.0
2017-Sep-12 10:29N 61°36' E 005°02'0 0.0
2017-Sep-12 10:00N 61°36' E 005°02'0 0.0
2017-Sep-12 09:30N 61°36' E 005°02'0 0.0
2017-Sep-12 09:00N 61°36' E 005°02'0 0.0
2017-Sep-12 08:30N 61°36' E 005°02'0 0.0
2017-Sep-12 07:59N 61°36' E 005°02'0 0.0
2017-Sep-12 07:30N 61°36' E 005°02'0 0.0
2017-Sep-12 07:00N 61°36' E 005°02'0 0.0
2017-Sep-12 06:30N 61°36' E 005°02'0 0.0
2017-Sep-12 06:00N 61°36' E 005°02'0 0.0
2017-Sep-12 05:31N 61°36' E 005°02'0 0.0
2017-Sep-12 05:00N 61°36' E 005°02'0 0.0
2017-Sep-12 04:30N 61°36' E 005°02'0 0.0
2017-Sep-12 04:00N 61°36' E 005°02'0 0.0
2017-Sep-12 03:31N 61°36' E 005°02'0 0.0
2017-Sep-12 03:00N 61°36' E 005°02'0 0.0
2017-Sep-12 02:30N 61°36' E 005°02'0 0.0
2017-Sep-12 02:00N 61°36' E 005°02'0 0.0
2017-Sep-12 01:29N 61°36' E 005°02'0 0.0
2017-Sep-12 01:00N 61°36' E 005°02'0 0.0
2017-Sep-12 00:31N 61°36' E 005°02'0 0.0
2017-Sep-12 00:00N 61°36' E 005°02'0 0.0
2017-Sep-11 23:29N 61°36' E 005°02'0 0.0
2017-Sep-11 23:00N 61°36' E 005°02'0 0.0
2017-Sep-11 22:30N 61°36' E 005°02'0 0.0
2017-Sep-11 22:00N 61°36' E 005°02'0 0.0
2017-Sep-11 21:30N 61°36' E 005°02'0 0.0
2017-Sep-11 21:00N 61°36' E 005°02'0 0.0
2017-Sep-11 20:31N 61°36' E 005°02'0 0.0
2017-Sep-11 20:00N 61°36' E 005°02'0 0.0
2017-Sep-11 19:30N 61°36' E 005°02'0 0.0
2017-Sep-11 19:00N 61°36' E 005°02'0 0.0
2017-Sep-11 18:30N 61°36' E 005°02'0 0.0
2017-Sep-11 18:00N 61°36' E 005°02'0 0.0
2017-Sep-11 17:30N 61°36' E 005°02'0 0.0
2017-Sep-11 16:59N 61°36' E 005°02'0 0.0
2017-Sep-11 16:30N 61°36' E 005°02'0 0.0
2017-Sep-11 16:01N 61°36' E 005°02'0 0.0
2017-Sep-11 15:30N 61°36' E 005°02'2 4.5
2017-Sep-11 15:00N 61°37' E 004°57'4 7.9
2017-Sep-11 14:30N 61°37' E 004°49'612.2
2017-Sep-11 14:00N 61°36' E 005°02'0 0.0
2017-Sep-11 13:30N 61°36' E 005°02'0 0.0
2017-Sep-11 13:00N 61°36' E 005°02'0 0.0
2017-Sep-11 12:30N 61°36' E 005°02'0 0.0
2017-Sep-11 12:00N 61°36' E 005°02'0 0.0
2017-Sep-11 11:29N 61°36' E 005°02'0 0.0
2017-Sep-11 11:00N 61°36' E 005°02'0 0.0
2017-Sep-11 10:30N 61°36' E 005°02'0 0.0
2017-Sep-11 10:00N 61°36' E 005°02'0 0.0
2017-Sep-11 09:30N 61°36' E 005°02'0 0.0
2017-Sep-11 08:59N 61°36' E 005°02'0 0.0
2017-Sep-11 08:30N 61°36' E 005°02'0 0.0
2017-Sep-11 08:00N 61°36' E 005°02'0 0.0
2017-Sep-11 07:30N 61°36' E 005°02'0 0.0
2017-Sep-11 06:59N 61°36' E 005°02'0 0.0
2017-Sep-11 06:30N 61°36' E 005°02'0 0.0
2017-Sep-11 06:00N 61°36' E 005°02'0 0.0
2017-Sep-11 05:30N 61°36' E 005°02'0 0.0
2017-Sep-11 05:00N 61°36' E 005°02'0 0.0
2017-Sep-11 04:30N 61°36' E 005°02'0 0.0
2017-Sep-11 04:00N 61°36' E 005°02'0 0.0
2017-Sep-11 03:30N 61°36' E 005°02'0 0.0
2017-Sep-11 02:59N 61°36' E 005°02'0 0.0
2017-Sep-11 02:30N 61°36' E 005°02'0 0.0
2017-Sep-11 02:00N 61°36' E 005°02'0 0.0
2017-Sep-11 01:29N 61°36' E 005°02'0 0.0
2017-Sep-11 01:00N 61°36' E 005°02'0 0.0
2017-Sep-11 00:30N 61°36' E 005°02'0 0.0
2017-Sep-10 23:59N 61°36' E 005°02'0 0.0
2017-Sep-10 23:30N 61°36' E 005°02'0 0.0
2017-Sep-10 23:00N 61°36' E 005°02'0 0.0
2017-Sep-10 22:29N 61°36' E 005°02'0 0.0
2017-Sep-10 22:00N 61°36' E 005°02'0 0.0
2017-Sep-10 21:30N 61°36' E 005°02'0 0.0
2017-Sep-10 21:00N 61°36' E 005°02'0 0.0
2017-Sep-10 20:30N 61°36' E 005°02'0 0.0
2017-Sep-10 20:00N 61°36' E 005°02'0 0.0
2017-Sep-10 19:30N 61°36' E 005°02'0 0.0
2017-Sep-10 19:00N 61°36' E 005°02'0 0.0
2017-Sep-10 18:30N 61°36' E 005°02'0 0.0
2017-Sep-10 18:00N 61°36' E 005°02'0 0.0
2017-Sep-10 17:30N 61°36' E 005°02'0 0.0
2017-Sep-10 17:00N 61°36' E 005°02'0 0.0
2017-Sep-10 16:29N 61°36' E 005°02'0 0.0
2017-Sep-10 15:59N 61°36' E 005°02'0 0.0
2017-Sep-10 15:30N 61°36' E 005°02'0 0.0
2017-Sep-10 14:59N 61°36' E 005°02'0 0.0
2017-Sep-10 14:00N 61°36' E 005°02'0 0.0
2017-Sep-10 13:30N 61°36' E 005°02'0 0.0
2017-Sep-10 13:00N 61°36' E 005°02'0 0.0
2017-Sep-10 12:29N 61°36' E 005°02'0 0.0
2017-Sep-10 12:00N 61°36' E 005°02'0 0.0
2017-Sep-10 11:30N 61°36' E 005°02'0 0.0
2017-Sep-10 11:00N 61°36' E 005°02'0 0.0
2017-Sep-10 10:29N 61°36' E 005°02'0 0.0
2017-Sep-10 10:00N 61°36' E 005°02'0 0.0
2017-Sep-10 09:30N 61°36' E 005°02'0 0.0
2017-Sep-10 09:00N 61°36' E 005°02'0 0.0
2017-Sep-10 08:30N 61°36' E 005°02'0 0.0
2017-Sep-10 08:00N 61°36' E 005°02'0 0.0
2017-Sep-10 07:30N 61°36' E 005°02'0 0.0
2017-Sep-10 07:00N 61°36' E 005°02'0 0.0
2017-Sep-10 06:30N 61°36' E 005°02'0 0.0
2017-Sep-10 06:00N 61°36' E 005°02'0 0.0
2017-Sep-10 05:30N 61°36' E 005°02'0 0.0
2017-Sep-10 04:59N 61°36' E 005°02'0 0.0
2017-Sep-10 04:30N 61°36' E 005°02'0 0.0
2017-Sep-10 04:00N 61°36' E 005°02'0 0.0
2017-Sep-10 03:30N 61°36' E 005°02'0 0.0
2017-Sep-10 03:00N 61°36' E 005°02'0 0.0
2017-Sep-10 02:30N 61°36' E 005°02'0 0.0
2017-Sep-10 02:00N 61°36' E 005°02'0 0.0
2017-Sep-10 01:29N 61°36' E 005°02'0 0.0
2017-Sep-10 01:00N 61°36' E 005°02'0 0.0
2017-Sep-10 00:30N 61°36' E 005°02'0 0.0
2017-Sep-09 23:59N 61°36' E 005°02'0 0.0
2017-Sep-09 23:30N 61°36' E 005°02'0 0.0
2017-Sep-09 23:00N 61°36' E 005°02'0 0.0
2017-Sep-09 22:30N 61°36' E 005°02'0 0.0
2017-Sep-09 22:00N 61°36' E 005°02'0 0.0
2017-Sep-09 21:30N 61°36' E 005°02'0 0.0
2017-Sep-09 21:00N 61°36' E 005°02'0 0.0
2017-Sep-09 20:30N 61°36' E 005°02'0 0.0
2017-Sep-09 20:00N 61°36' E 005°02'0 0.0
2017-Sep-09 19:30N 61°36' E 005°02'0 0.0
2017-Sep-09 19:00N 61°36' E 005°02'0 0.0
2017-Sep-09 18:30N 61°36' E 005°02'0 0.0
2017-Sep-09 18:00N 61°36' E 005°02'0 0.0
2017-Sep-09 17:30N 61°36' E 005°02'0 0.0
2017-Sep-09 17:00N 61°36' E 005°02'0 0.0
2017-Sep-09 16:30N 61°36' E 005°02'0 0.0
2017-Sep-09 16:00N 61°36' E 005°02'0 0.0
2017-Sep-09 15:30N 61°36' E 005°02'0 0.0
2017-Sep-09 15:00N 61°36' E 005°02'918.4
2017-Sep-09 14:30N 61°42' E 004°46'510.7
2017-Sep-09 14:00N 61°41' E 004°58'4 7.8
2017-Sep-09 13:30N 61°43' E 004°52'2 4.7
2017-Sep-09 13:00N 61°42' E 004°55'612.6
2017-Sep-09 12:30N 61°36' E 005°02'0 0.0
2017-Sep-09 12:00N 61°36' E 005°02'0 0.0
2017-Sep-09 11:30N 61°36' E 005°02'0 0.0
2017-Sep-09 11:00N 61°36' E 005°02'0 0.0
2017-Sep-09 10:30N 61°36' E 005°02'0 0.0
2017-Sep-09 10:00N 61°36' E 005°02'0 0.0
2017-Sep-09 09:30N 61°36' E 005°02'0 0.0
2017-Sep-09 09:00N 61°36' E 005°02'0 0.0
2017-Sep-09 08:29N 61°36' E 005°02'0 0.0
2017-Sep-09 08:00N 61°36' E 005°02'0 0.0
2017-Sep-09 07:30N 61°36' E 005°02'0 0.0
2017-Sep-09 07:00N 61°36' E 005°02'0 0.0
2017-Sep-09 06:30N 61°36' E 005°02'0 0.0
2017-Sep-09 06:00N 61°36' E 005°02'0 0.0
2017-Sep-09 05:30N 61°36' E 005°02'0 0.0
2017-Sep-09 05:00N 61°36' E 005°02'0 0.0
2017-Sep-09 04:30N 61°36' E 005°02'0 0.0
2017-Sep-09 04:00N 61°36' E 005°02'0 0.0
2017-Sep-09 03:30N 61°36' E 005°02'0 0.0
2017-Sep-09 02:59N 61°36' E 005°02'0 0.0
2017-Sep-09 02:30N 61°36' E 005°02'0 0.0
2017-Sep-09 02:00N 61°36' E 005°02'0 0.0
2017-Sep-09 01:30N 61°36' E 005°02'0 0.0
2017-Sep-09 00:59N 61°36' E 005°02'0 0.0
2017-Sep-09 00:30N 61°36' E 005°02'0 0.0
2017-Sep-08 23:58N 61°36' E 005°02'0 0.0
2017-Sep-08 23:28N 61°36' E 005°02'0 0.0
2017-Sep-08 22:48N 61°36' E 005°02'0 0.0
2017-Sep-08 22:30N 61°36' E 005°02'0 0.0
2017-Sep-08 22:00N 61°36' E 005°02'0 0.0
2017-Sep-08 21:30N 61°36' E 005°02'0 0.0
2017-Sep-08 21:00N 61°36' E 005°02'0 0.0
2017-Sep-08 20:29N 61°36' E 005°02'0 0.0
2017-Sep-08 20:00N 61°36' E 005°02'0 0.0
2017-Sep-08 19:30N 61°36' E 005°02'0 0.0
2017-Sep-08 19:00N 61°36' E 005°02'0 0.0
2017-Sep-08 18:30N 61°36' E 005°02'0 0.0
2017-Sep-08 18:00N 61°36' E 005°02'0 0.0
2017-Sep-08 17:30N 61°36' E 005°02'0 0.0
2017-Sep-08 17:00N 61°36' E 005°02'0 0.0
2017-Sep-08 16:30N 61°36' E 005°02'0 0.0
2017-Sep-08 16:00N 61°36' E 005°02'0 0.0
2017-Sep-08 15:30N 61°36' E 005°02'0 0.0
2017-Sep-08 15:00N 61°36' E 005°02'0 0.0
2017-Sep-08 14:30N 61°36' E 005°02'0 0.0
2017-Sep-08 13:59N 61°36' E 005°02'0 0.0
2017-Sep-08 13:30N 61°36' E 005°02'0 0.0
2017-Sep-08 13:00N 61°36' E 005°02'0 0.0
2017-Sep-08 12:30N 61°36' E 005°02'0 0.0
2017-Sep-08 12:00N 61°36' E 005°02'0 0.0
2017-Sep-08 11:30N 61°36' E 005°02'0 0.0
2017-Sep-08 11:00N 61°36' E 005°02'3 5.5
2017-Sep-08 10:30N 61°39' E 004°59'815.8
2017-Sep-08 09:59N 61°46' E 004°53'714.0
2017-Sep-08 09:30N 61°40' E 004°58'4 7.7
2017-Sep-08 09:00N 61°36' E 005°02'0 0.0
2017-Sep-08 08:30N 61°36' E 005°02'0 0.0
2017-Sep-08 07:59N 61°36' E 005°02'0 0.0
2017-Sep-08 07:30N 61°36' E 005°02'0 0.0
2017-Sep-08 07:01N 61°36' E 005°02'0 0.0
2017-Sep-08 06:29N 61°36' E 005°02'0 0.0
2017-Sep-08 06:00N 61°36' E 005°02'0 0.0
2017-Sep-08 05:30N 61°36' E 005°02'0 0.0
2017-Sep-08 05:00N 61°36' E 005°02'0 0.0
2017-Sep-08 04:30N 61°36' E 005°02'0 0.0
2017-Sep-08 04:00N 61°36' E 005°02'0 0.0
2017-Sep-08 03:30N 61°36' E 005°02'0 0.0
2017-Sep-08 03:00N 61°36' E 005°02'0 0.0
2017-Sep-08 02:30N 61°36' E 005°02'0 0.0
2017-Sep-08 01:59N 61°36' E 005°02'0 0.0
2017-Sep-08 01:29N 61°36' E 005°02'0 0.0
2017-Sep-08 01:00N 61°36' E 005°02'0 0.0
2017-Sep-08 00:30N 61°36' E 005°02'0 0.0
2017-Sep-08 00:00N 61°36' E 005°02'0 0.0
2017-Sep-07 23:30N 61°36' E 005°02'0 0.0
2017-Sep-07 23:00N 61°36' E 005°02'0 0.0
2017-Sep-07 22:30N 61°36' E 005°02'0 0.0
2017-Sep-07 22:01N 61°36' E 005°02'0 0.0
2017-Sep-07 21:30N 61°36' E 005°02'0 0.0
2017-Sep-07 21:00N 61°36' E 005°02'0 0.0
2017-Sep-07 20:30N 61°36' E 005°02'0 0.0
2017-Sep-07 20:00N 61°36' E 005°02'0 0.0
2017-Sep-07 19:30N 61°36' E 005°02'0 0.0
2017-Sep-07 19:00N 61°36' E 005°02'0 0.0
2017-Sep-07 18:30N 61°36' E 005°02'0 0.0
2017-Sep-07 18:00N 61°36' E 005°02'0 0.0
2017-Sep-07 17:29N 61°36' E 005°02'0 0.0
2017-Sep-07 16:59N 61°36' E 005°02'0 0.0
2017-Sep-07 16:30N 61°36' E 005°02'0 0.0
2017-Sep-07 16:00N 61°36' E 005°02'7 4.5
2017-Sep-07 14:29N 61°30' E 005°08'5 9.5
2017-Sep-07 14:00N 61°30' E 004°58'0 0.0
2017-Sep-07 13:29N 61°30' E 004°58'713.3
2017-Sep-07 13:00N 61°34' E 004°47'0 0.3
2017-Sep-07 12:30N 61°34' E 004°47'0 0.0
2017-Sep-07 12:00N 61°34' E 004°47'1 2.7
2017-Sep-07 11:30N 61°35' E 004°49'0 0.0
2017-Sep-07 11:01N 61°35' E 004°49'2 4.1
2017-Sep-07 10:30N 61°37' E 004°49'0 0.3
2017-Sep-07 10:00N 61°37' E 004°49'0 0.0
2017-Sep-07 09:30N 61°37' E 004°49'3 6.9
2017-Sep-07 09:00N 61°40' E 004°53'0 0.0
2017-Sep-07 08:30N 61°40' E 004°53'4 7.7
2017-Sep-07 08:00N 61°38' E 005°00'0 0.0
2017-Sep-07 07:30N 61°38' E 005°00'0 0.0
2017-Sep-07 07:00N 61°38' E 005°00'2 4.2
2017-Sep-07 06:29N 61°36' E 005°02'918.3
2017-Sep-07 06:00N 61°45' E 004°60'816.0
2017-Sep-07 05:30N 61°46' E 005°16'1121.8
2017-Sep-07 05:00N 61°46' E 004°53'510.5
2017-Sep-07 04:30N 61°41' E 004°47'917.9
2017-Sep-07 04:00N 61°36' E 005°02'0 0.2
2017-Sep-07 03:30N 61°36' E 005°02'0 0.0
2017-Sep-07 03:00N 61°36' E 005°02'0 0.0
2017-Sep-07 02:30N 61°36' E 005°02'0 0.0
2017-Sep-07 02:01N 61°36' E 005°02'0 0.0
2017-Sep-07 01:30N 61°36' E 005°02'0 0.0
2017-Sep-07 01:00N 61°36' E 005°02'0 0.0
2017-Sep-07 00:29N 61°36' E 005°02'0 0.0
2017-Sep-07 00:00N 61°36' E 005°02'0 0.0
2017-Sep-06 23:30N 61°36' E 005°02'0 0.0
2017-Sep-06 23:00N 61°36' E 005°02'0 0.0
2017-Sep-06 22:30N 61°36' E 005°02'0 0.0
2017-Sep-06 21:59N 61°36' E 005°02'0 0.0
2017-Sep-06 21:29N 61°36' E 005°02'0 0.0
2017-Sep-06 21:00N 61°36' E 005°02'0 0.0
2017-Sep-06 20:30N 61°36' E 005°02'0 0.0
2017-Sep-06 20:00N 61°36' E 005°02'0 0.0
2017-Sep-06 19:30N 61°36' E 005°02'0 0.0
2017-Sep-06 19:00N 61°36' E 005°02'0 0.0
2017-Sep-06 18:31N 61°36' E 005°02'0 0.0
2017-Sep-06 18:00N 61°36' E 005°02'0 0.0
2017-Sep-06 17:30N 61°36' E 005°02'0 0.0
2017-Sep-06 17:00N 61°36' E 005°02'0 0.0
2017-Sep-06 16:30N 61°36' E 005°02'0 0.0
2017-Sep-06 16:00N 61°36' E 005°02'0 0.0
2017-Sep-06 15:30N 61°36' E 005°02'2 4.0
2017-Sep-06 15:00N 61°37' E 004°58'4 8.1
2017-Sep-06 14:30N 61°37' E 004°49'611.7
2017-Sep-06 14:00N 61°36' E 005°02'0 0.0
2017-Sep-06 13:30N 61°36' E 005°02'0 0.0
2017-Sep-06 13:00N 61°36' E 005°02'0 0.0
2017-Sep-06 12:29N 61°36' E 005°02'0 0.0
2017-Sep-06 12:00N 61°36' E 005°02'0 0.0
2017-Sep-06 11:30N 61°36' E 005°02'0 0.0
2017-Sep-06 11:00N 61°36' E 005°02'0 0.0
2017-Sep-06 10:30N 61°36' E 005°02'0 0.0
2017-Sep-06 09:59N 61°36' E 005°02'0 0.0
2017-Sep-06 09:29N 61°36' E 005°02'0 0.0
2017-Sep-06 09:00N 61°36' E 005°02'917.8
2017-Sep-06 08:30N 61°44' E 004°55'612.1
2017-Sep-06 08:00N 61°39' E 004°59'3 5.8
2017-Sep-06 07:30N 61°36' E 005°02'0 0.0
2017-Sep-06 07:00N 61°36' E 005°02'0 0.0
2017-Sep-06 06:30N 61°36' E 005°02'0 0.0
2017-Sep-06 06:00N 61°36' E 005°02'0 0.0
2017-Sep-06 05:30N 61°36' E 005°02'0 0.0
2017-Sep-06 04:59N 61°36' E 005°02'0 0.0
2017-Sep-06 04:30N 61°36' E 005°02'611.7
2017-Sep-06 04:00N 61°39' E 004°51'612.0
2017-Sep-06 03:30N 61°36' E 005°02'0 0.1
2017-Sep-06 03:00N 61°36' E 005°02'0 0.0
2017-Sep-06 02:30N 61°36' E 005°02'0 0.0
2017-Sep-06 01:59N 61°36' E 005°02'0 0.0
2017-Sep-06 01:30N 61°36' E 005°02'0 0.0
2017-Sep-06 01:00N 61°36' E 005°02'0 0.0
2017-Sep-06 00:30N 61°36' E 005°02'0 0.0
2017-Sep-06 00:00N 61°36' E 005°02'0 0.0
2017-Sep-05 23:30N 61°36' E 005°02'0 0.0
2017-Sep-05 23:00N 61°36' E 005°02'0 0.0
2017-Sep-05 22:29N 61°36' E 005°02'0 0.0
2017-Sep-05 21:59N 61°36' E 005°02'0 0.0
2017-Sep-05 21:30N 61°36' E 005°02'0 0.0
2017-Sep-05 20:59N 61°36' E 005°02'0 0.0
2017-Sep-05 20:30N 61°36' E 005°02'0 0.0
2017-Sep-05 20:00N 61°36' E 005°02'0 0.0
2017-Sep-05 19:30N 61°36' E 005°02'0 0.0
2017-Sep-05 18:59N 61°36' E 005°02'0 0.0
2017-Sep-05 18:30N 61°36' E 005°02'0 0.0
2017-Sep-05 18:00N 61°36' E 005°02'0 0.0
2017-Sep-05 17:30N 61°36' E 005°02'0 0.0
2017-Sep-05 17:00N 61°36' E 005°02'0 0.0
2017-Sep-05 16:30N 61°36' E 005°02'0 0.0
2017-Sep-05 16:00N 61°36' E 005°02'0 0.0
2017-Sep-05 15:30N 61°36' E 005°02'0 0.0
2017-Sep-05 15:00N 61°36' E 005°02'0 0.0
2017-Sep-05 14:30N 61°36' E 005°02'0 0.0
2017-Sep-05 14:00N 61°36' E 005°02'0 0.0
2017-Sep-05 13:30N 61°36' E 005°02'0 0.0
2017-Sep-05 13:00N 61°36' E 005°02'0 0.0
2017-Sep-05 12:29N 61°36' E 005°02'0 0.0
2017-Sep-05 12:00N 61°36' E 005°02'0 0.0
2017-Sep-05 11:30N 61°36' E 005°02'0 0.0
2017-Sep-05 11:00N 61°36' E 005°02'0 0.0
2017-Sep-05 10:30N 61°36' E 005°02'0 0.0
2017-Sep-05 09:59N 61°36' E 005°02'0 0.0
2017-Sep-05 09:30N 61°36' E 005°02'0 0.0
2017-Sep-05 09:00N 61°36' E 005°02'0 0.0
2017-Sep-05 08:29N 61°36' E 005°02'0 0.0
2017-Sep-05 08:00N 61°36' E 005°02'0 0.0
2017-Sep-05 07:29N 61°36' E 005°02'0 0.0
2017-Sep-05 06:59N 61°36' E 005°02'714.7
2017-Sep-05 06:30N 61°42' E 004°54'1 1.2
2017-Sep-05 06:00N 61°43' E 004°55'714.6
2017-Sep-05 05:30N 61°36' E 005°02'0 0.0
2017-Sep-05 05:00N 61°36' E 005°02'0 0.0
2017-Sep-05 04:30N 61°36' E 005°02'0 0.0
2017-Sep-05 04:00N 61°36' E 005°02'0 0.0
2017-Sep-05 03:30N 61°36' E 005°02'0 0.0
2017-Sep-05 02:59N 61°36' E 005°02'0 0.0
2017-Sep-05 02:30N 61°36' E 005°02'0 0.0
2017-Sep-05 02:00N 61°36' E 005°02'0 0.0
2017-Sep-05 01:29N 61°36' E 005°02'0 0.0
2017-Sep-05 01:00N 61°36' E 005°02'0 0.0
2017-Sep-05 00:30N 61°36' E 005°02'0 0.0
2017-Sep-05 00:00N 61°36' E 005°02'0 0.0
2017-Sep-04 23:30N 61°36' E 005°02'0 0.0
2017-Sep-04 23:00N 61°36' E 005°02'0 0.0
2017-Sep-04 22:30N 61°36' E 005°02'0 0.0
2017-Sep-04 22:00N 61°36' E 005°02'0 0.0
2017-Sep-04 21:30N 61°36' E 005°02'0 0.0
2017-Sep-04 21:00N 61°36' E 005°02'0 0.0
2017-Sep-04 20:30N 61°36' E 005°02'0 0.0
2017-Sep-04 19:59N 61°36' E 005°02'0 0.0
2017-Sep-04 19:30N 61°36' E 005°02'0 0.0
2017-Sep-04 19:00N 61°36' E 005°02'0 0.0
2017-Sep-04 18:30N 61°36' E 005°02'0 0.0
2017-Sep-04 18:00N 61°36' E 005°02'0 0.0
2017-Sep-04 17:30N 61°36' E 005°02'0 0.0
2017-Sep-04 17:00N 61°36' E 005°02'0 0.0
2017-Sep-04 16:30N 61°36' E 005°02'0 0.0
2017-Sep-04 16:00N 61°36' E 005°02'0 0.0
2017-Sep-04 15:30N 61°36' E 005°02'0 0.0
2017-Sep-04 15:00N 61°36' E 005°02'0 0.0
2017-Sep-04 14:30N 61°36' E 005°02'0 0.0
2017-Sep-04 14:00N 61°36' E 005°02'0 0.0
2017-Sep-04 13:30N 61°36' E 005°02'0 0.0
2017-Sep-04 12:59N 61°36' E 005°02'0 0.0
2017-Sep-04 12:30N 61°36' E 005°02'815.0
2017-Sep-04 12:00N 61°43' E 004°56'4 8.3
2017-Sep-04 11:30N 61°39' E 004°59'3 6.5
2017-Sep-04 10:58N 61°36' E 005°02'0 0.0
2017-Sep-04 10:30N 61°36' E 005°02'0 0.0
2017-Sep-04 09:59N 61°36' E 005°02'0 0.0
2017-Sep-04 09:30N 61°36' E 005°02'0 0.0
2017-Sep-04 09:00N 61°36' E 005°02'0 0.0
2017-Sep-04 08:30N 61°36' E 005°02'0 0.0
2017-Sep-04 07:59N 61°36' E 005°02'0 0.0
2017-Sep-04 07:30N 61°36' E 005°02'0 0.0
2017-Sep-04 07:00N 61°36' E 005°02'0 0.0
2017-Sep-04 06:28N 61°36' E 005°02'0 0.0
2017-Sep-04 05:59N 61°36' E 005°02'0 0.0
2017-Sep-04 05:30N 61°36' E 005°02'  

Dump ship's entire track history